Sonoma, CA

8:17 AM PDT on March 24, 2017 (GMT -0700)
Campbell Creek | | Change Station

Elev 939 ft 38.41 °N, 122.43 °W | Updated 3 seconds ago

Rain
Rain
45.6 °F
Feels Like 40 °F
N
12.0
Wind Variable Wind from NNW
Gusts 24.0 mph

Today
High -- | Low -- °F
--% Chance of Precip.
Yesterday
High -- | Low -- °F
Precip. -- in
Pressure 30.13 in
Visibility 2.5 miles
Clouds Overcast 2100 ft
Windchill 40 °F
Dew Point -7.8 °F
Humidity 10%
Rainfall 0.18 in
Snow Depth Not available.
7:06 AM 7:25 PM
Waning Crescent, 14% visible
METAR KO69 241455Z AUTO 11008G16KT 2 1/2SM OVC021 09/08 A3013 RMK AO1
Pressure 30.13 in
Visibility 2.5 miles
Clouds Overcast 2100 ft
Windchill 40 °F
Dew Point -7.8 °F
Humidity 10%
Rainfall 0.18 in
Snow Depth Not available.
7:06 AM 7:25 PM
Waning Crescent, 14% visible
METAR KO69 241455Z AUTO 11008G16KT 2 1/2SM OVC021 09/08 A3013 RMK AO1

Get Severe Weather Alerts

Thanks for signing up!

Be on the lookout for a verification email in your inbox.

You'll start receiving the daily forecast at 8 AM.

×

10-Day Weather Forecast

Almanac

Astronomy

Mar. 24, 2017 Rise Set
Actual Time
Civil Twilight
Nautical Twilight
Astronomical Twilight
Moon
Length of Visible Light
Length of Day
Tomorrow will be .
, % of the Moon is Illuminated

Today's Extremes

State Highs State Lows

Community

WunderPhotos

Upload Photos

1,962,540 photos uploaded!

WunderBlog® & News

Nearby

Air Quality

  Air Quality AQ Index Pollutant
Not available.

Snow Depth

Station Depth Elevation

Earthquake Activity

City Distance Mag. Time & Date
Minimum magnitude displayed is 2.5.

Earthquake Activity

City Distance Mag. Time & Date
Minimum magnitude displayed is 2.5.

Coastal Water Temperatures

Place Temperature

Stations

Nearby Weather Stations

Station Location Temp. Windchill Dew Point Humidity Wind Precip. Elev Updated Type
                   

Watches & Warnings

There are currently no watches in effect.